ΕΜΥ, Εθνική Μετεωρολογική Υπηρεσία - Δελτία Καιρού, Προγνώσεις

ΑΕΡΟΝΑΥΤΙΛΙΑ

GREEK AIRPORTS CODES

LGTT 201230Z 24010KT 9999 FEW025 19/01 Q1014=

EUROPEAN AIRPORTS CODES

LFPO 201230Z 10007KT 070V130 CAVOK 17/03 Q1016 NOSIG=